createdAt,value
2018-10-17T00:00:06.486Z,9.30
2018-10-17T00:02:33.667Z,12.83
2018-10-17T00:05:01.290Z,11.27
2018-10-17T00:07:28.314Z,10.10
2018-10-17T00:09:55.506Z,10.23
2018-10-17T00:12:22.705Z,10.37
2018-10-17T00:14:49.903Z,11.50
2018-10-17T00:17:17.099Z,12.13
2018-10-17T00:19:44.262Z,9.47
2018-10-17T00:22:11.491Z,10.70
2018-10-17T00:24:38.670Z,11.83
2018-10-17T00:27:05.874Z,9.20
2018-10-17T00:29:33.046Z,10.37
2018-10-17T00:32:00.233Z,9.93
2018-10-17T00:34:27.405Z,10.50
2018-10-17T00:36:54.574Z,9.57
2018-10-17T00:39:21.778Z,11.63
2018-10-17T00:41:48.927Z,9.70
2018-10-17T00:44:16.133Z,9.00
2018-10-17T00:46:43.314Z,11.53
2018-10-17T00:49:10.891Z,9.67
2018-10-17T00:51:37.978Z,10.03
2018-10-17T00:54:05.520Z,14.43
2018-10-17T00:56:32.742Z,11.40
2018-10-17T00:59:12.119Z,10.40
2018-10-17T01:01:42.267Z,9.33
2018-10-17T01:04:09.722Z,10.43
2018-10-17T01:06:37.355Z,8.97
2018-10-17T01:09:13.925Z,13.20
2018-10-17T01:11:41.355Z,9.97
2018-10-17T01:14:08.991Z,11.13
2018-10-17T01:16:36.201Z,11.93
2018-10-17T01:19:04.111Z,10.67
2018-10-17T01:21:31.294Z,9.80
2018-10-17T01:23:58.539Z,10.50
2018-10-17T01:26:25.731Z,8.80
2018-10-17T01:28:53.048Z,10.00
2018-10-17T01:31:20.483Z,12.67
2018-10-17T01:33:47.699Z,14.13
2018-10-17T01:36:14.900Z,9.40
2018-10-17T01:38:42.103Z,9.20
2018-10-17T01:41:09.363Z,10.87
2018-10-17T01:43:36.506Z,11.77
2018-10-17T01:46:06.847Z,11.37
2018-10-17T01:48:33.999Z,9.17
2018-10-17T01:51:01.509Z,11.27
2018-10-17T01:53:28.856Z,9.77
2018-10-17T01:55:56.039Z,11.50
2018-10-17T01:58:23.210Z,10.57
2018-10-17T02:00:50.370Z,13.90
2018-10-17T02:03:17.546Z,9.87
2018-10-17T02:05:44.753Z,9.83
2018-10-17T02:08:11.912Z,12.10
2018-10-17T02:10:39.083Z,12.20
2018-10-17T02:13:06.350Z,9.93
2018-10-17T02:15:33.520Z,10.37
2018-10-17T02:18:00.696Z,8.93
2018-10-17T02:20:27.879Z,9.00
2018-10-17T02:22:55.132Z,10.10
2018-10-17T02:25:22.252Z,14.33
2018-10-17T02:27:49.458Z,10.03
2018-10-17T02:30:16.625Z,14.77
2018-10-17T02:32:43.782Z,10.17
2018-10-17T02:35:14.048Z,11.23
2018-10-17T02:37:41.119Z,10.23
2018-10-17T02:40:08.311Z,8.67
2018-10-17T02:42:35.502Z,10.13
2018-10-17T02:45:02.691Z,9.30
2018-10-17T02:47:29.970Z,10.50
2018-10-17T02:49:57.188Z,9.77
2018-10-17T02:52:24.373Z,9.00
2018-10-17T02:54:51.582Z,11.07
2018-10-17T02:57:18.773Z,10.73
2018-10-17T02:59:45.936Z,23.23
2018-10-17T03:02:13.143Z,10.30
2018-10-17T03:04:40.327Z,10.03
2018-10-17T03:07:07.547Z,11.73
2018-10-17T03:09:34.715Z,9.90
2018-10-17T03:12:02.607Z,12.50
2018-10-17T03:14:29.775Z,11.87
2018-10-17T03:16:56.987Z,10.90
2018-10-17T03:19:24.182Z,10.00
2018-10-17T03:21:51.378Z,14.73
2018-10-17T03:24:18.564Z,13.07
2018-10-17T03:26:45.766Z,10.13
2018-10-17T03:29:13.027Z,12.40
2018-10-17T03:31:40.137Z,16.83
2018-10-17T03:34:07.362Z,9.97
2018-10-17T03:36:34.531Z,11.67
2018-10-17T03:39:02.013Z,9.50
2018-10-17T03:41:29.205Z,13.50
2018-10-17T03:43:56.367Z,10.30
2018-10-17T03:46:23.569Z,12.90
2018-10-17T03:48:50.744Z,10.70
2018-10-17T03:51:18.137Z,13.13
2018-10-17T03:53:45.305Z,10.07
2018-10-17T03:56:12.615Z,10.60
2018-10-17T03:58:39.790Z,11.10
2018-10-17T04:01:06.995Z,10.03
2018-10-17T04:03:34.154Z,10.87
2018-10-17T04:06:01.561Z,11.57
2018-10-17T04:08:28.739Z,10.77
2018-10-17T04:10:56.003Z,10.83
2018-10-17T04:13:23.144Z,11.30
2018-10-17T04:15:50.355Z,10.10
2018-10-17T04:18:17.515Z,11.43
2018-10-17T04:20:44.722Z,12.57
2018-10-17T04:23:12.097Z,12.13
2018-10-17T04:25:39.207Z,11.97
2018-10-17T04:28:06.407Z,11.40
2018-10-17T04:30:33.613Z,11.77
2018-10-17T04:33:01.297Z,11.40
2018-10-17T04:38:02.804Z,14.03
2018-10-17T04:40:29.979Z,12.57
2018-10-17T04:42:57.224Z,14.60
2018-10-17T04:45:24.384Z,14.10
2018-10-17T04:47:51.592Z,12.97
2018-10-17T04:50:18.776Z,16.40
2018-10-17T04:52:45.952Z,13.30
2018-10-17T04:55:13.219Z,13.93
2018-10-17T04:57:40.624Z,12.57
2018-10-17T05:00:10.148Z,18.27
2018-10-17T05:02:37.332Z,13.17
2018-10-17T05:05:04.603Z,17.40
2018-10-17T05:07:31.770Z,13.30
2018-10-17T05:09:58.950Z,13.20
2018-10-17T05:12:26.178Z,12.07
2018-10-17T05:14:53.394Z,14.43
2018-10-17T05:17:20.604Z,12.40
2018-10-17T05:19:47.801Z,15.30
2018-10-17T05:22:21.740Z,15.33
2018-10-17T05:24:48.917Z,13.13
2018-10-17T05:27:16.127Z,16.70
2018-10-17T05:29:43.348Z,18.60
2018-10-17T05:32:10.512Z,14.60
2018-10-17T05:34:37.732Z,16.20
2018-10-17T05:37:04.993Z,18.53
2018-10-17T05:39:32.135Z,18.10
2018-10-17T05:44:33.212Z,19.73
2018-10-17T05:47:00.362Z,19.00
2018-10-17T05:49:27.565Z,15.33
2018-10-17T05:51:54.802Z,19.87
2018-10-17T05:54:22.024Z,25.90
2018-10-17T05:56:49.197Z,16.43
2018-10-17T05:59:16.401Z,17.00
2018-10-17T06:01:43.726Z,17.00
2018-10-17T06:04:10.887Z,26.23
2018-10-17T06:06:38.085Z,19.10
2018-10-17T06:09:06.666Z,23.40
2018-10-17T06:11:33.899Z,19.67
2018-10-17T06:14:01.674Z,20.40
2018-10-17T06:16:28.875Z,21.20
2018-10-17T06:18:56.086Z,20.73
2018-10-17T06:21:23.261Z,16.53
2018-10-17T06:23:50.447Z,17.67
2018-10-17T06:26:17.656Z,15.67
2018-10-17T06:28:44.856Z,15.40
2018-10-17T06:31:12.149Z,15.20
2018-10-17T06:33:39.226Z,19.37
2018-10-17T06:36:06.419Z,16.67
2018-10-17T06:38:33.607Z,15.50
2018-10-17T06:41:01.941Z,15.77
2018-10-17T06:43:29.083Z,16.87
2018-10-17T06:45:56.264Z,16.40
2018-10-17T06:48:23.446Z,16.90
2018-10-17T06:50:50.644Z,21.83
2018-10-17T06:53:17.929Z,15.60
2018-10-17T06:55:45.031Z,16.77
2018-10-17T06:58:12.210Z,19.93
2018-10-17T07:00:39.443Z,23.10
2018-10-17T07:03:06.633Z,21.00
2018-10-17T07:05:33.876Z,21.33
2018-10-17T07:08:01.352Z,20.57
2018-10-17T07:10:28.560Z,20.03
2018-10-17T07:12:55.783Z,29.63
2018-10-17T07:15:22.990Z,25.90
2018-10-17T07:17:50.146Z,17.67
2018-10-17T07:20:17.341Z,19.63
2018-10-17T07:22:44.520Z,20.13
2018-10-17T07:25:11.788Z,18.40
2018-10-17T07:27:38.898Z,19.10
2018-10-17T07:30:06.553Z,18.40
2018-10-17T07:32:33.749Z,24.23
2018-10-17T07:35:01.493Z,21.57
2018-10-17T07:37:28.665Z,20.27
2018-10-17T07:39:55.867Z,17.13
2018-10-17T07:42:23.068Z,22.10
2018-10-17T07:44:50.266Z,17.30
2018-10-17T07:47:17.439Z,17.43
2018-10-17T07:49:44.689Z,20.80
2018-10-17T07:52:11.863Z,20.97
2018-10-17T07:54:39.083Z,24.53
2018-10-17T07:57:06.287Z,20.87
2018-10-17T07:59:33.505Z,25.70
2018-10-17T08:02:00.666Z,19.83
2018-10-17T08:04:27.865Z,24.73
2018-10-17T08:06:55.048Z,18.60
2018-10-17T08:09:22.248Z,24.83
2018-10-17T08:11:49.428Z,24.97
2018-10-17T08:14:16.663Z,27.00
2018-10-17T08:16:43.819Z,23.00
2018-10-17T08:19:11.020Z,22.97
2018-10-17T08:21:38.215Z,20.37
2018-10-17T08:24:05.440Z,25.80
2018-10-17T08:26:32.612Z,21.30
2018-10-17T08:28:59.812Z,20.37
2018-10-17T08:31:27.011Z,22.40
2018-10-17T08:33:54.183Z,25.43
2018-10-17T08:36:21.677Z,21.43
2018-10-17T08:38:48.608Z,21.70
2018-10-17T08:41:15.784Z,23.77
2018-10-17T08:43:42.999Z,36.00
2018-10-17T08:46:10.426Z,25.17
2018-10-17T08:48:37.613Z,21.00
2018-10-17T08:51:04.904Z,20.20
2018-10-17T08:53:32.053Z,17.30
2018-10-17T08:55:59.273Z,17.13
2018-10-17T08:58:26.475Z,17.07
2018-10-17T09:00:53.644Z,22.50
2018-10-17T09:03:20.848Z,19.80
2018-10-17T09:05:48.041Z,19.03
2018-10-17T09:08:15.322Z,18.40
2018-10-17T09:10:42.460Z,22.67
2018-10-17T09:13:09.651Z,22.83
2018-10-17T09:15:38.541Z,18.10
2018-10-17T09:18:04.178Z,17.07
2018-10-17T09:20:31.480Z,19.97
2018-10-17T09:22:58.528Z,20.87
2018-10-17T09:25:25.784Z,20.23
2018-10-17T09:27:52.970Z,25.53
2018-10-17T09:30:20.207Z,20.70
2018-10-17T09:32:47.312Z,21.23
2018-10-17T09:35:14.720Z,20.03
2018-10-17T09:37:41.766Z,25.20
2018-10-17T09:40:10.147Z,24.50
2018-10-17T09:42:37.280Z,22.37
2018-10-17T09:45:04.978Z,23.30
2018-10-17T09:47:32.199Z,25.50
2018-10-17T09:49:59.369Z,24.40
2018-10-17T09:52:26.559Z,26.33
2018-10-17T09:54:53.814Z,25.03
2018-10-17T09:57:21.071Z,26.90
2018-10-17T09:59:48.288Z,30.20
2018-10-17T10:02:15.541Z,25.17
2018-10-17T10:04:42.683Z,21.60
2018-10-17T10:07:09.884Z,29.80
2018-10-17T10:09:37.058Z,23.03
2018-10-17T10:12:04.411Z,31.57
2018-10-17T10:14:31.570Z,27.17
2018-10-17T10:16:58.743Z,22.50
2018-10-17T10:19:25.944Z,19.60
2018-10-17T10:21:53.843Z,26.70
2018-10-17T10:24:21.112Z,21.03
2018-10-17T10:26:48.222Z,28.57
2018-10-17T10:29:15.435Z,22.20
2018-10-17T10:31:42.636Z,23.20
2018-10-17T10:34:09.945Z,23.90
2018-10-17T10:36:37.048Z,21.83
2018-10-17T10:39:06.252Z,19.63
2018-10-17T10:41:33.437Z,21.53
2018-10-17T10:44:00.697Z,19.70
2018-10-17T10:46:27.904Z,19.17
2018-10-17T10:48:55.086Z,20.60
2018-10-17T10:51:22.375Z,18.53
2018-10-17T10:53:49.464Z,10.70
2018-10-17T10:56:16.734Z,12.60
2018-10-17T10:58:44.121Z,11.23
2018-10-17T11:01:11.056Z,14.10
2018-10-17T11:03:38.239Z,8.83
2018-10-17T11:06:05.559Z,12.70
2018-10-17T11:08:32.776Z,10.33
2018-10-17T11:10:59.968Z,8.90
2018-10-17T11:13:27.117Z,9.70
2018-10-17T11:15:54.316Z,9.73
2018-10-17T11:18:21.504Z,10.93
2018-10-17T11:20:48.667Z,10.67
2018-10-17T11:23:15.931Z,12.33
2018-10-17T11:25:43.098Z,15.90
2018-10-17T11:28:10.289Z,9.67
2018-10-17T11:30:37.455Z,8.00
2018-10-17T11:33:04.682Z,9.33
2018-10-17T11:35:31.852Z,8.73
2018-10-17T11:37:59.108Z,8.60
2018-10-17T11:40:26.234Z,8.10
2018-10-17T11:42:53.411Z,9.57
2018-10-17T11:45:20.623Z,10.43
2018-10-17T11:47:47.881Z,8.30
2018-10-17T11:50:15.057Z,16.30
2018-10-17T11:52:42.506Z,8.97
2018-10-17T11:55:09.975Z,6.80
2018-10-17T11:57:37.615Z,9.30
2018-10-17T12:00:05.755Z,7.50
2018-10-17T12:02:32.911Z,9.53
2018-10-17T12:05:00.227Z,8.20
2018-10-17T12:07:27.357Z,8.90
2018-10-17T12:09:54.611Z,7.60
2018-10-17T12:12:21.824Z,9.53
2018-10-17T12:14:48.994Z,9.67
2018-10-17T12:17:16.188Z,10.73
2018-10-17T12:19:43.440Z,9.43
2018-10-17T12:22:10.562Z,10.53
2018-10-17T12:24:38.462Z,11.90
2018-10-17T12:27:06.412Z,8.87
2018-10-17T12:29:35.886Z,10.70
2018-10-17T12:32:05.698Z,7.40
2018-10-17T12:34:32.850Z,7.20
2018-10-17T12:37:00.046Z,7.40
2018-10-17T12:39:27.340Z,9.27
2018-10-17T12:41:54.448Z,9.20
2018-10-17T12:44:21.607Z,7.90
2018-10-17T12:46:48.795Z,13.13
2018-10-17T12:49:16.062Z,8.30
2018-10-17T12:51:43.158Z,10.17
2018-10-17T12:54:10.328Z,8.80
2018-10-17T12:56:37.511Z,10.77
2018-10-17T12:59:04.804Z,11.83
2018-10-17T13:01:31.967Z,8.30
2018-10-17T13:03:59.132Z,8.23
2018-10-17T13:06:26.327Z,8.03
2018-10-17T13:08:53.491Z,8.90
2018-10-17T13:11:20.864Z,9.53
2018-10-17T13:13:47.879Z,11.20
2018-10-17T13:16:15.039Z,9.70
2018-10-17T13:18:42.356Z,8.90
2018-10-17T13:21:09.549Z,9.07
2018-10-17T13:23:36.762Z,10.77
2018-10-17T13:26:03.947Z,11.67
2018-10-17T13:28:31.159Z,7.77
2018-10-17T13:30:58.461Z,11.73
2018-10-17T13:33:25.601Z,10.03
2018-10-17T13:35:52.784Z,12.57
2018-10-17T13:38:20.007Z,15.03
2018-10-17T13:40:47.214Z,10.23
2018-10-17T13:43:14.447Z,9.97
2018-10-17T13:45:41.623Z,9.17
2018-10-17T13:48:08.844Z,26.93
2018-10-17T13:50:36.041Z,10.00
2018-10-17T13:53:03.255Z,8.40
2018-10-17T13:55:30.452Z,13.03
2018-10-17T13:57:57.675Z,8.90
2018-10-17T14:00:24.831Z,9.43
2018-10-17T14:02:52.018Z,9.63
2018-10-17T14:05:19.200Z,9.00
2018-10-17T14:07:46.422Z,11.97
2018-10-17T14:10:13.786Z,12.20
2018-10-17T14:12:40.973Z,9.10
2018-10-17T14:15:08.213Z,9.57
2018-10-17T14:17:35.385Z,9.20
2018-10-17T14:20:02.937Z,8.70
2018-10-17T14:22:30.119Z,14.03
2018-10-17T14:24:57.312Z,8.03
2018-10-17T14:27:24.488Z,8.83
2018-10-17T14:29:51.754Z,8.40
2018-10-17T14:32:18.911Z,9.10
2018-10-17T14:34:46.084Z,10.30
2018-10-17T14:37:13.249Z,9.80
2018-10-17T14:39:40.459Z,10.00
2018-10-17T14:42:07.710Z,9.07
2018-10-17T14:44:34.859Z,9.23
2018-10-17T14:47:02.283Z,11.23
2018-10-17T14:49:29.528Z,9.80
2018-10-17T14:51:56.697Z,9.93
2018-10-17T14:54:23.907Z,9.93
2018-10-17T14:56:51.123Z,10.17
2018-10-17T14:59:18.600Z,7.90
2018-10-17T15:01:45.647Z,7.53
2018-10-17T15:04:12.847Z,8.50
2018-10-17T15:06:40.030Z,8.93
2018-10-17T15:09:07.316Z,12.60
2018-10-17T15:11:34.501Z,7.63
2018-10-17T15:14:02.091Z,7.30
2018-10-17T15:16:29.250Z,6.73
2018-10-17T15:18:56.455Z,8.13
2018-10-17T15:21:23.636Z,7.93
2018-10-17T15:23:50.843Z,6.70
2018-10-17T15:26:18.055Z,7.63
2018-10-17T15:28:45.219Z,8.93
2018-10-17T15:31:12.395Z,7.77
2018-10-17T15:33:39.587Z,11.00
2018-10-17T15:36:06.881Z,11.83
2018-10-17T15:38:34.038Z,10.37
2018-10-17T15:41:01.597Z,9.40
2018-10-17T15:43:28.856Z,8.03
2018-10-17T15:45:55.974Z,8.53
2018-10-17T15:48:23.151Z,8.13
2018-10-17T15:50:50.355Z,8.03
2018-10-17T15:53:17.608Z,7.13
2018-10-17T15:55:44.761Z,8.57
2018-10-17T15:58:11.930Z,8.27
2018-10-17T16:00:39.287Z,7.60
2018-10-17T16:03:06.488Z,7.50
2018-10-17T16:05:33.658Z,7.57
2018-10-17T16:08:01.299Z,9.13
2018-10-17T16:10:28.499Z,12.17
2018-10-17T16:12:55.703Z,8.63
2018-10-17T16:15:22.858Z,7.47
2018-10-17T16:17:50.051Z,7.57
2018-10-17T16:20:17.306Z,12.47
2018-10-17T16:22:44.501Z,8.10
2018-10-17T16:25:11.639Z,13.23
2018-10-17T16:27:38.802Z,9.40
2018-10-17T16:30:07.736Z,8.33
2018-10-17T16:32:34.843Z,8.50
2018-10-17T16:35:02.203Z,16.03
2018-10-17T16:37:29.393Z,29.37
2018-10-17T16:39:56.587Z,14.37
2018-10-17T16:42:23.780Z,9.57
2018-10-17T16:44:50.942Z,7.60
2018-10-17T16:47:18.124Z,8.60
2018-10-17T16:49:45.445Z,9.70
2018-10-17T16:52:12.605Z,10.97
2018-10-17T16:54:39.759Z,7.77
2018-10-17T16:57:08.127Z,14.63
2018-10-17T16:59:35.254Z,10.30
2018-10-17T17:02:02.934Z,10.60
2018-10-17T17:04:30.225Z,9.70
2018-10-17T17:06:57.342Z,13.87
2018-10-17T17:09:29.017Z,12.17
2018-10-17T17:11:56.433Z,7.73
2018-10-17T17:14:23.768Z,8.00
2018-10-17T17:16:50.931Z,9.13
2018-10-17T17:19:18.732Z,9.53
2018-10-17T17:21:49.965Z,6.90
2018-10-17T17:24:17.843Z,12.60
2018-10-17T17:26:45.555Z,8.37
2018-10-17T17:29:14.745Z,8.80
2018-10-17T17:31:43.408Z,8.17
2018-10-17T17:34:10.888Z,11.67
2018-10-17T17:36:38.185Z,11.20
2018-10-17T17:39:06.642Z,10.67
2018-10-17T17:41:34.668Z,7.67
2018-10-17T17:44:02.357Z,7.17
2018-10-17T17:46:29.589Z,17.47
2018-10-17T17:48:56.727Z,9.23
2018-10-17T17:51:23.907Z,9.17
2018-10-17T17:53:51.091Z,8.47
2018-10-17T17:56:18.282Z,8.13
2018-10-17T17:58:45.483Z,11.70
2018-10-17T18:01:12.659Z,10.30
2018-10-17T18:03:39.879Z,8.27
2018-10-17T18:06:07.045Z,6.90
2018-10-17T18:08:34.274Z,10.87
2018-10-17T18:11:07.224Z,16.50
2018-10-17T18:13:34.417Z,12.80
2018-10-17T18:16:02.310Z,10.40
2018-10-17T18:18:30.794Z,16.63
2018-10-17T18:20:58.904Z,8.10
2018-10-17T18:23:26.391Z,13.00
2018-10-17T18:25:53.552Z,12.63
2018-10-17T18:28:20.787Z,10.80
2018-10-17T18:30:52.165Z,9.97
2018-10-17T18:33:26.467Z,13.43
2018-10-17T18:36:11.441Z,13.13
2018-10-17T18:38:48.398Z,11.57
2018-10-17T18:41:15.566Z,13.00
2018-10-17T18:43:42.730Z,11.90
2018-10-17T18:46:09.919Z,9.60
2018-10-17T18:48:37.106Z,13.90
2018-10-17T18:51:04.429Z,11.00
2018-10-17T18:53:31.568Z,14.27
2018-10-17T18:55:58.832Z,10.60
2018-10-17T18:58:25.945Z,11.63
2018-10-17T19:00:53.112Z,11.10
2018-10-17T19:03:20.412Z,14.43
2018-10-17T19:05:47.594Z,13.47
2018-10-17T19:08:14.862Z,14.33
2018-10-17T19:10:41.971Z,11.63
2018-10-17T19:13:09.210Z,14.70
2018-10-17T19:15:36.370Z,13.27
2018-10-17T19:18:03.563Z,11.53
2018-10-17T19:20:30.755Z,11.53
2018-10-17T19:22:57.947Z,17.30
2018-10-17T19:25:25.344Z,20.40
2018-10-17T19:27:52.541Z,12.07
2018-10-17T19:30:19.799Z,11.60
2018-10-17T19:32:46.917Z,10.60
2018-10-17T19:35:14.100Z,12.00
2018-10-17T19:37:41.443Z,12.60
2018-10-17T19:40:09.234Z,9.93
2018-10-17T19:42:36.617Z,12.43
2018-10-17T19:45:03.849Z,13.30
2018-10-17T19:47:30.983Z,11.23
2018-10-17T19:49:58.183Z,14.07
2018-10-17T19:52:25.373Z,10.60
2018-10-17T19:54:52.567Z,13.50
2018-10-17T19:57:19.727Z,13.67
2018-10-17T19:59:46.899Z,16.70
2018-10-17T20:02:15.016Z,9.67
2018-10-17T20:04:42.283Z,11.27
2018-10-17T20:07:09.503Z,10.60
2018-10-17T20:09:36.666Z,10.07
2018-10-17T20:12:03.891Z,10.57
2018-10-17T20:14:31.058Z,10.60
2018-10-17T20:16:58.218Z,17.73
2018-10-17T20:19:25.407Z,10.50
2018-10-17T20:21:52.599Z,12.13
2018-10-17T20:24:19.750Z,10.23
2018-10-17T20:26:46.960Z,12.27
2018-10-17T20:29:14.130Z,11.90
2018-10-17T20:31:41.478Z,14.13
2018-10-17T20:34:08.666Z,11.73
2018-10-17T20:36:35.875Z,11.80
2018-10-17T20:39:03.111Z,14.77
2018-10-17T20:41:30.303Z,13.07
2018-10-17T20:43:57.506Z,11.10
2018-10-17T20:46:24.695Z,12.10
2018-10-17T20:48:51.869Z,10.90
2018-10-17T20:51:19.048Z,10.13
2018-10-17T20:53:46.198Z,16.23
2018-10-17T20:56:13.469Z,11.60
2018-10-17T20:58:40.619Z,10.30
2018-10-17T21:01:07.807Z,12.80
2018-10-17T21:03:35.010Z,11.10
2018-10-17T21:06:02.690Z,11.00
2018-10-17T21:08:29.890Z,15.87
2018-10-17T21:10:57.095Z,13.30
2018-10-17T21:13:24.322Z,12.30
2018-10-17T21:15:51.565Z,10.50
2018-10-17T21:18:18.805Z,12.47
2018-10-17T21:20:45.963Z,10.73
2018-10-17T21:23:13.143Z,13.37
2018-10-17T21:25:40.341Z,11.67
2018-10-17T21:28:07.609Z,14.13
2018-10-17T21:30:34.779Z,10.47
2018-10-17T21:33:02.462Z,12.30
2018-10-17T21:35:29.687Z,12.63
2018-10-17T21:37:57.090Z,13.90
2018-10-17T21:40:24.172Z,14.20
2018-10-17T21:42:51.321Z,10.43
2018-10-17T21:45:18.523Z,10.20
2018-10-17T21:47:45.682Z,12.17
2018-10-17T21:50:12.942Z,9.43
2018-10-17T21:52:40.098Z,10.87
2018-10-17T21:55:07.804Z,13.30
2018-10-17T21:57:35.001Z,11.50
2018-10-17T22:00:02.647Z,10.87
2018-10-17T22:02:29.823Z,10.33
2018-10-17T22:04:57.016Z,11.63
2018-10-17T22:07:24.226Z,12.93
2018-10-17T22:09:51.523Z,14.03
2018-10-17T22:12:18.656Z,11.37
2018-10-17T22:14:45.815Z,15.63
2018-10-17T22:17:13.050Z,10.30
2018-10-17T22:19:40.424Z,12.63
2018-10-17T22:22:08.257Z,13.23
2018-10-17T22:24:35.451Z,10.53
2018-10-17T22:27:02.630Z,10.17
2018-10-17T22:29:29.887Z,11.93
2018-10-17T22:31:57.066Z,13.60
2018-10-17T22:34:24.279Z,15.20
2018-10-17T22:36:51.576Z,10.20
2018-10-17T22:39:18.763Z,11.80
2018-10-17T22:41:46.260Z,10.83
2018-10-17T22:44:13.523Z,11.40
2018-10-17T22:46:41.050Z,10.33
2018-10-17T22:49:09.311Z,11.90
2018-10-17T22:51:36.851Z,11.00
2018-10-17T22:54:04.410Z,10.50
2018-10-17T22:56:31.617Z,15.07
2018-10-17T22:58:58.807Z,12.17
2018-10-17T23:01:26.006Z,10.13
2018-10-17T23:03:53.168Z,13.70
2018-10-17T23:06:20.377Z,17.73
2018-10-17T23:08:47.530Z,11.77
2018-10-17T23:11:14.734Z,11.20
2018-10-17T23:13:41.939Z,11.57
2018-10-17T23:16:09.146Z,11.10
2018-10-17T23:18:36.310Z,12.63
2018-10-17T23:21:03.531Z,14.43
2018-10-17T23:23:30.696Z,15.60
2018-10-17T23:25:57.939Z,14.40
2018-10-17T23:28:25.054Z,20.30
2018-10-17T23:30:52.255Z,12.23
2018-10-17T23:33:19.730Z,15.20
2018-10-17T23:35:46.950Z,13.00
2018-10-17T23:38:14.157Z,12.63
2018-10-17T23:40:41.346Z,11.13
2018-10-17T23:43:09.564Z,10.60
2018-10-17T23:45:36.759Z,13.17
2018-10-17T23:48:04.017Z,11.13
2018-10-17T23:50:31.301Z,12.00
2018-10-17T23:52:58.363Z,14.43
2018-10-17T23:55:25.526Z,15.30
2018-10-17T23:57:52.718Z,12.90
